Etusivu
METAR-TAF:

METAR-TAF

Lentoasemat :

Thulen lentotukikohta

Thule, Grönlanti

Leveyspiiri: 76-32N, Pituuspiiri: 068-42W, korkeus merenpinnasta: 77 m

Tämänhetkinen sää

Tämä raportti tehtiin 28 minuuttia sitten, kello 10.56 UTC
Tuuli 8 kn idästä
Lämpötila -18°C
Kosteus 77%
Ilmanpaine 1013 hPa
Näkyvyys 10 km tai enemmän
selkeää

METAR: BGTL 071056Z AUTO 10008KT 9999 CLR M18/M21 A2991 RMK AO2 SLP119 T11781208 TSNO $

Aika: 08:24 (11:24 UTC)

Sääennuste

Tämä raportti tehtiin 2 tuntia ja 24 minuuttia sitten, kello 09.00 UTC
Ennuste voimassa 07. päivästä klo 09 UTC - 08. päivään klo 15 UTC
Tuuli 12 kn idästä
Näkyvyys 10 km tai enemmän
selkeää
Tulossa
08. päivästä klo 08 UTC - 08. päivään klo 09 UTC
Tuuli 15 kn kaakosta puuskistuen 25 kn:hen
Näkyvyys 10 km tai enemmän
selkeää

TAF: BGTL 070900Z 0709/0815 10012KT 9999 SKC QNH2991INS BECMG 0808/0809 13015G25KT 9999 SKC 520009 QNH3015INS TXM09/0718Z TNM19/0805Z

Säähavainnot ja -ennusteet yli 4000 lentoasemalta (METAR- ja TAF-raportit).

Käytössä olevat sääasemat on merkitty karttaan keltaisilla ja punaisilla pisteillä.

Aseta hiiri pisteen päälle nähdäksesi sääaseman nimen.

Klikkaa sitten nähdäksesi säähavainnot ja -ennusteet.

Kartan vaihtaminen: klikkaa mustalla rastilla varustettuja vihreitä pisteitä, niin voit zoomata sisään; viivalla varustettua vihreää pistettä, niin voit zoomata ulos tai vihreitä nuolia, niin pääset viereisille kartoille.


METAR-TAF: